createdAt,value
2022-10-11T00:02:11.517Z,101613.88
2022-10-11T00:04:38.561Z,101613.84
2022-10-11T00:07:05.470Z,101617.44
2022-10-11T00:09:32.442Z,101621.81
2022-10-11T00:11:59.436Z,101610.34
2022-10-11T00:14:27.664Z,101612.06
2022-10-11T00:16:54.651Z,101613.81
2022-10-11T00:19:22.096Z,101609.38
2022-10-11T00:21:49.036Z,101605.78
2022-10-11T00:24:16.918Z,101605.81
2022-10-11T00:26:47.024Z,101602.53
2022-10-11T00:29:14.561Z,101604.28
2022-10-11T00:31:41.511Z,101592.81
2022-10-11T00:34:10.234Z,101587.41
2022-10-11T00:36:37.147Z,101590.06
2022-10-11T00:39:04.981Z,101591.75
2022-10-11T00:41:31.840Z,101594.25
2022-10-11T00:44:14.968Z,101589.84
2022-10-11T00:46:46.088Z,101583.84
2022-10-11T00:49:26.174Z,101586.47
2022-10-11T00:51:57.132Z,101587.41
2022-10-11T00:54:27.134Z,101581.22
2022-10-11T00:56:59.826Z,101588.31
2022-10-11T00:59:30.959Z,101580.47
2022-10-11T01:01:57.944Z,101575.13
2022-10-11T01:04:24.890Z,101578.56
2022-10-11T01:06:53.257Z,101572.47
2022-10-11T01:09:21.395Z,101568.91
2022-10-11T01:11:51.361Z,101565.31
2022-10-11T01:14:38.259Z,101565.47
2022-10-11T01:17:13.929Z,101554.81
2022-10-11T01:20:32.073Z,101553.84
2022-10-11T01:23:36.857Z,101544.16
2022-10-11T01:26:16.098Z,101549.59
2022-10-11T01:29:01.355Z,101543.44
2022-10-11T01:31:43.605Z,101538.06
2022-10-11T01:34:19.615Z,101543.41
2022-10-11T01:37:13.518Z,101543.47
2022-10-11T01:39:59.279Z,101540.75
2022-10-11T01:42:27.279Z,101542.56
2022-10-11T01:44:55.182Z,101542.63
2022-10-11T01:47:23.615Z,101533.72
2022-10-11T01:49:59.029Z,101535.50
2022-10-11T01:52:29.193Z,101535.50
2022-10-11T01:55:27.772Z,101540.84
2022-10-11T01:58:14.318Z,101541.78
2022-10-11T02:00:55.557Z,101541.75
2022-10-11T02:03:47.192Z,101550.53
2022-10-11T02:06:51.360Z,101545.22
2022-10-11T02:09:29.668Z,101546.16
2022-10-11T02:12:02.312Z,101540.91
2022-10-11T02:14:35.644Z,101539.13
2022-10-11T02:17:07.929Z,101545.31
2022-10-11T02:19:39.595Z,101544.44
2022-10-11T02:22:15.090Z,101543.56
2022-10-11T02:24:47.161Z,101535.59
2022-10-11T02:27:17.317Z,101540.00
2022-10-11T02:29:45.369Z,101533.84
2022-10-11T02:32:14.066Z,101536.50
2022-10-11T02:34:47.605Z,101529.47
2022-10-11T02:37:29.646Z,101535.59
2022-10-11T02:40:02.381Z,101533.84
2022-10-11T02:42:37.206Z,101536.47
2022-10-11T02:45:14.873Z,101540.84
2022-10-11T02:47:43.528Z,101530.28
2022-10-11T02:50:14.645Z,101534.69
2022-10-11T02:52:41.646Z,101531.13
2022-10-11T02:55:09.097Z,101530.25
2022-10-11T02:57:35.961Z,101520.59
2022-10-11T03:00:03.970Z,101525.91
2022-10-11T03:02:30.877Z,101526.81
2022-10-11T03:04:57.758Z,101525.88
2022-10-11T03:07:24.837Z,101531.16
2022-10-11T03:09:51.718Z,101518.88
2022-10-11T03:12:18.580Z,101518.00
2022-10-11T03:14:45.536Z,101517.13
2022-10-11T03:17:35.177Z,101517.09
2022-10-11T03:19:59.343Z,101508.34
2022-10-11T03:22:26.258Z,101518.88
2022-10-11T03:24:53.199Z,101515.34
2022-10-11T03:27:20.040Z,101516.22
2022-10-11T03:29:46.898Z,101520.59
2022-10-11T03:32:13.797Z,101506.44
2022-10-11T03:34:40.657Z,101502.78
2022-10-11T03:37:07.560Z,101508.88
2022-10-11T03:39:34.669Z,101506.44
2022-10-11T03:42:01.523Z,101513.59
2022-10-11T03:44:28.393Z,101504.78
2022-10-11T03:46:55.304Z,101500.38
2022-10-11T03:49:22.215Z,101510.03
2022-10-11T03:51:49.067Z,101498.59
2022-10-11T03:54:16.083Z,101498.63
2022-10-11T03:56:42.933Z,101504.81
2022-10-11T03:59:10.743Z,101501.28
2022-10-11T04:01:38.657Z,101493.34
2022-10-11T04:04:06.014Z,101499.47
2022-10-11T04:06:33.487Z,101493.34
2022-10-11T04:09:00.514Z,101492.47
2022-10-11T04:11:27.478Z,101494.22
2022-10-11T04:13:54.376Z,101491.59
2022-10-11T04:16:21.266Z,101492.47
2022-10-11T04:18:48.181Z,101498.63
2022-10-11T04:21:15.063Z,101497.75
2022-10-11T04:23:41.962Z,101498.63
2022-10-11T04:26:09.153Z,101495.94
2022-10-11T04:28:36.376Z,101498.53
2022-10-11T04:31:05.279Z,101491.53
2022-10-11T04:33:32.413Z,101487.13
2022-10-11T04:35:59.370Z,101495.00
2022-10-11T04:38:26.205Z,101493.16
2022-10-11T04:40:53.099Z,101499.72
2022-10-11T04:43:20.121Z,101492.63
2022-10-11T04:45:46.987Z,101497.09
2022-10-11T04:48:14.320Z,101492.88
2022-10-11T04:50:41.272Z,101505.59
2022-10-11T04:53:08.382Z,101509.63
2022-10-11T04:55:35.356Z,101492.47
2022-10-11T04:58:02.319Z,101500.13
2022-10-11T05:00:29.274Z,101498.69
2022-10-11T05:02:56.336Z,101499.50
2022-10-11T05:05:23.230Z,101493.63
2022-10-11T05:07:50.110Z,101507.13
2022-10-11T05:10:17.225Z,101507.25
2022-10-11T05:12:44.325Z,101505.34
2022-10-11T05:15:11.219Z,101505.50
2022-10-11T05:17:38.187Z,101521.16
2022-10-11T05:20:05.581Z,101514.31
2022-10-11T05:22:32.502Z,101513.59
2022-10-11T05:24:59.366Z,101511.78
2022-10-11T05:27:26.261Z,101518.53
2022-10-11T05:29:53.182Z,101517.78
2022-10-11T05:32:20.091Z,101522.19
2022-10-11T05:34:47.201Z,101522.16
2022-10-11T05:37:14.114Z,101522.47
2022-10-11T05:39:41.053Z,101523.44
2022-10-11T05:42:10.053Z,101527.16
2022-10-11T05:44:37.067Z,101524.44
2022-10-11T05:47:04.001Z,101527.44
2022-10-11T05:49:31.011Z,101528.69
2022-10-11T05:51:57.988Z,101524.91
2022-10-11T05:54:24.931Z,101523.69
2022-10-11T05:56:51.828Z,101529.16
2022-10-11T05:59:18.731Z,101527.34
2022-10-11T06:01:45.703Z,101534.00
2022-10-11T06:04:12.921Z,101535.19
2022-10-11T06:06:39.846Z,101530.19
2022-10-11T06:09:06.782Z,101535.94
2022-10-11T06:11:34.214Z,101534.97
2022-10-11T06:14:01.143Z,101536.84
2022-10-11T06:16:28.175Z,101531.69
2022-10-11T06:18:56.549Z,101543.41
2022-10-11T06:21:24.589Z,101534.44
2022-10-11T06:23:56.855Z,101530.78
2022-10-11T06:26:26.991Z,101535.88
2022-10-11T06:28:54.015Z,101538.81
2022-10-11T06:31:20.990Z,101537.56
2022-10-11T06:33:47.874Z,101541.69
2022-10-11T06:36:17.034Z,101530.47
2022-10-11T06:38:45.463Z,101536.25
2022-10-11T06:41:33.015Z,101543.72
2022-10-11T06:44:00.161Z,101543.00
2022-10-11T06:46:28.129Z,101545.13
2022-10-11T06:48:56.549Z,101552.59
2022-10-11T06:51:23.811Z,101547.75
2022-10-11T06:53:52.520Z,101547.38
2022-10-11T06:56:19.885Z,101552.75
2022-10-11T06:58:47.399Z,101546.31
2022-10-11T07:01:20.759Z,101543.00
2022-10-11T07:03:48.534Z,101548.09
2022-10-11T07:06:21.951Z,101544.69
2022-10-11T07:08:49.740Z,101546.78
2022-10-11T07:11:19.265Z,101543.22
2022-10-11T07:14:12.615Z,101545.06
2022-10-11T07:16:39.570Z,101540.47
2022-10-11T07:19:06.981Z,101541.06
2022-10-11T07:21:35.164Z,101548.03
2022-10-11T07:24:02.758Z,101550.13
2022-10-11T07:26:35.287Z,101542.16
2022-10-11T07:29:05.904Z,101537.03
2022-10-11T07:31:33.059Z,101543.50
2022-10-11T07:33:59.987Z,101548.09
2022-10-11T07:36:45.578Z,101551.03
2022-10-11T07:39:12.701Z,101546.28
2022-10-11T07:41:44.618Z,101553.03
2022-10-11T07:44:12.497Z,101556.44
2022-10-11T07:46:39.504Z,101549.16
2022-10-11T07:49:06.568Z,101536.97
2022-10-11T07:51:33.541Z,101554.88
2022-10-11T07:54:04.720Z,101556.69
2022-10-11T07:56:33.852Z,101552.59
2022-10-11T07:59:03.666Z,101549.03
2022-10-11T08:01:31.660Z,101567.06
2022-10-11T08:03:59.261Z,101559.44
2022-10-11T08:06:31.707Z,101557.16
2022-10-11T08:09:00.739Z,101553.94
2022-10-11T08:11:34.254Z,101557.34
2022-10-11T08:14:04.646Z,101548.91
2022-10-11T08:16:31.567Z,101552.66
2022-10-11T08:18:58.558Z,101550.38
2022-10-11T08:21:26.970Z,101540.56
2022-10-11T08:23:53.894Z,101541.59
2022-10-11T08:26:21.268Z,101557.56
2022-10-11T08:28:48.248Z,101556.78
2022-10-11T08:31:16.317Z,101558.97
2022-10-11T08:33:43.694Z,101554.50
2022-10-11T08:36:11.764Z,101548.34
2022-10-11T08:38:39.362Z,101535.94
2022-10-11T08:41:27.853Z,101534.66
2022-10-11T08:44:19.726Z,101540.00
2022-10-11T08:46:53.233Z,101535.91
2022-10-11T08:49:26.960Z,101540.78
2022-10-11T08:52:02.773Z,101546.88
2022-10-11T08:54:39.243Z,101537.16
2022-10-11T08:57:10.171Z,101532.78
2022-10-11T08:59:43.386Z,101529.34
2022-10-11T09:02:25.701Z,101527.19
2022-10-11T09:04:54.833Z,101525.00
2022-10-11T09:07:49.963Z,101529.56
2022-10-11T09:10:34.874Z,101524.13
2022-10-11T09:13:07.948Z,101516.38
2022-10-11T09:15:59.280Z,101527.13
2022-10-11T09:19:01.623Z,101527.53
2022-10-11T09:21:35.188Z,101514.75
2022-10-11T09:24:20.834Z,101514.16
2022-10-11T09:27:18.429Z,101530.97
2022-10-11T09:30:02.753Z,101521.53
2022-10-11T09:32:36.180Z,101525.09
2022-10-11T09:35:14.034Z,101516.22
2022-10-11T09:37:59.434Z,101526.50
2022-10-11T09:40:44.823Z,101511.75
2022-10-11T09:43:12.408Z,101516.44
2022-10-11T09:45:49.272Z,101515.78
2022-10-11T09:48:37.825Z,101523.34
2022-10-11T09:51:21.228Z,101514.84
2022-10-11T09:53:56.488Z,101512.25
2022-10-11T09:56:25.488Z,101507.88
2022-10-11T09:59:24.243Z,101505.16
2022-10-11T10:02:16.773Z,101504.97
2022-10-11T10:05:12.791Z,101511.34
2022-10-11T10:07:41.277Z,101512.72
2022-10-11T10:10:34.910Z,101510.00
2022-10-11T10:13:06.055Z,101497.59
2022-10-11T10:15:37.748Z,101501.28
2022-10-11T10:18:10.618Z,101494.09
2022-10-11T10:20:38.675Z,101496.75
2022-10-11T10:23:19.501Z,101482.66
2022-10-11T10:25:51.859Z,101490.25
2022-10-11T10:28:24.152Z,101489.72
2022-10-11T10:30:58.883Z,101484.03
2022-10-11T10:33:31.331Z,101480.44
2022-10-11T10:36:08.112Z,101486.63
2022-10-11T10:38:43.138Z,101472.78
2022-10-11T10:41:14.158Z,101474.97
2022-10-11T10:43:43.638Z,101468.88
2022-10-11T10:46:21.293Z,101477.88
2022-10-11T10:49:41.259Z,101463.53
2022-10-11T10:52:08.341Z,101462.38
2022-10-11T10:55:00.468Z,101467.97
2022-10-11T10:57:33.008Z,101471.22
2022-10-11T11:00:09.981Z,101463.00
2022-10-11T11:02:58.041Z,101465.53
2022-10-11T11:05:51.805Z,101461.28
2022-10-11T11:08:33.493Z,101456.06
2022-10-11T11:11:06.433Z,101460.81
2022-10-11T11:13:54.528Z,101450.09
2022-10-11T11:16:39.066Z,101450.19
2022-10-11T11:19:20.911Z,101435.88
2022-10-11T11:22:14.827Z,101432.28
2022-10-11T11:25:00.487Z,101443.63
2022-10-11T11:28:06.423Z,101442.13
2022-10-11T11:30:57.494Z,101438.19
2022-10-11T11:33:49.657Z,101442.78
2022-10-11T11:36:38.780Z,101440.28
2022-10-11T11:39:11.616Z,101436.91
2022-10-11T11:41:43.686Z,101438.66
2022-10-11T11:44:27.483Z,101437.91
2022-10-11T11:47:03.980Z,101440.44
2022-10-11T11:49:54.293Z,101443.56
2022-10-11T11:52:33.782Z,101440.38
2022-10-11T11:55:33.562Z,101436.91
2022-10-11T11:58:21.825Z,101454.75
2022-10-11T12:01:05.562Z,101439.47
2022-10-11T12:03:42.045Z,101443.66
2022-10-11T12:06:14.739Z,101449.22
2022-10-11T12:08:44.940Z,101442.63
2022-10-11T12:11:25.616Z,101437.25
2022-10-11T12:13:55.997Z,101442.53
2022-10-11T12:16:23.565Z,101438.31
2022-10-11T12:18:52.518Z,101442.91
2022-10-11T12:21:26.498Z,101436.72
2022-10-11T12:23:59.960Z,101437.22
2022-10-11T12:26:29.887Z,101444.88
2022-10-11T12:29:17.138Z,101437.22
2022-10-11T12:32:28.729Z,101442.50
2022-10-11T12:35:33.509Z,101438.94
2022-10-11T12:38:15.548Z,101434.75
2022-10-11T12:40:47.340Z,101435.91
2022-10-11T12:43:14.324Z,101425.84
2022-10-11T12:45:47.866Z,101438.81
2022-10-11T12:49:03.927Z,101434.41
2022-10-11T12:51:47.109Z,101431.81
2022-10-11T12:54:41.935Z,101434.53
2022-10-11T12:57:12.016Z,101431.38
2022-10-11T12:59:45.189Z,101429.09
2022-10-11T13:02:44.306Z,101427.19
2022-10-11T13:05:45.063Z,101429.25
2022-10-11T13:08:18.815Z,101432.19
2022-10-11T13:10:47.458Z,101417.47
2022-10-11T13:13:25.020Z,101425.22
2022-10-11T13:15:56.806Z,101423.38
2022-10-11T13:18:26.401Z,101416.34
2022-10-11T13:20:53.361Z,101417.38
2022-10-11T13:23:26.064Z,101415.69
2022-10-11T13:25:54.038Z,101409.97
2022-10-11T13:28:22.288Z,101410.94
2022-10-11T13:30:53.518Z,101412.94
2022-10-11T13:33:25.331Z,101406.41
2022-10-11T13:35:52.970Z,101409.56
2022-10-11T13:38:26.825Z,101409.78
2022-10-11T13:40:56.105Z,101413.59
2022-10-11T13:43:27.465Z,101407.13
2022-10-11T13:45:55.897Z,101403.63
2022-10-11T13:48:22.875Z,101406.75
2022-10-11T13:51:17.077Z,101408.47
2022-10-11T13:54:05.174Z,101410.53
2022-10-11T13:56:37.661Z,101406.25
2022-10-11T13:59:05.201Z,101405.72
2022-10-11T14:01:45.305Z,101404.19
2022-10-11T14:04:17.578Z,101399.84
2022-10-11T14:06:56.586Z,101404.84
2022-10-11T14:09:30.305Z,101401.47
2022-10-11T14:12:28.352Z,101408.66
2022-10-11T14:14:55.336Z,101402.88
2022-10-11T14:17:37.451Z,101402.09
2022-10-11T14:20:13.761Z,101399.50
2022-10-11T14:22:40.653Z,101404.88
2022-10-11T14:25:07.596Z,101397.94
2022-10-11T14:27:34.892Z,101396.97
2022-10-11T14:32:51.218Z,101396.63
2022-10-11T14:35:21.596Z,101391.03
2022-10-11T14:37:48.492Z,101382.88
2022-10-11T14:40:22.726Z,101393.06
2022-10-11T14:42:49.797Z,101394.19
2022-10-11T14:45:17.825Z,101387.59
2022-10-11T14:47:45.420Z,101382.31
2022-10-11T14:50:39.407Z,101385.66
2022-10-11T14:53:07.812Z,101396.44
2022-10-11T14:55:39.096Z,101391.16
2022-10-11T14:58:09.128Z,101392.41
2022-10-11T15:00:36.820Z,101391.03
2022-10-11T15:03:05.300Z,101397.31
2022-10-11T15:05:34.229Z,101392.91
2022-10-11T15:08:02.981Z,101396.25
2022-10-11T15:10:36.231Z,101393.38
2022-10-11T15:13:05.188Z,101394.34
2022-10-11T15:15:35.481Z,101392.00
2022-10-11T15:18:05.288Z,101393.06
2022-10-11T15:20:41.759Z,101393.97
2022-10-11T15:23:10.042Z,101386.06
2022-10-11T15:25:39.282Z,101385.78
2022-10-11T15:28:07.822Z,101388.44
2022-10-11T15:30:40.972Z,101391.13
2022-10-11T15:33:08.629Z,101392.13
2022-10-11T15:35:35.706Z,101393.06
2022-10-11T15:38:02.677Z,101391.31
2022-10-11T15:40:35.558Z,101386.63
2022-10-11T15:43:02.894Z,101397.22
2022-10-11T15:45:30.073Z,101402.88
2022-10-11T15:47:57.459Z,101403.72
2022-10-11T15:50:39.283Z,101401.66
2022-10-11T15:53:17.467Z,101399.81
2022-10-11T15:55:46.925Z,101400.72
2022-10-11T15:58:16.164Z,101400.69
2022-10-11T16:00:44.790Z,101406.06
2022-10-11T16:03:16.700Z,101409.50
2022-10-11T16:05:44.287Z,101411.13
2022-10-11T16:08:11.745Z,101408.69
2022-10-11T16:10:39.648Z,101410.88
2022-10-11T16:13:06.833Z,101416.28
2022-10-11T16:15:35.078Z,101419.50
2022-10-11T16:18:02.540Z,101411.75
2022-10-11T16:20:29.504Z,101412.53
2022-10-11T16:22:56.567Z,101414.00
2022-10-11T16:25:23.989Z,101417.41
2022-10-11T16:27:51.585Z,101417.66
2022-10-11T16:30:20.252Z,101421.56
2022-10-11T16:32:47.521Z,101423.72
2022-10-11T16:35:16.293Z,101419.81
2022-10-11T16:37:43.666Z,101431.81
2022-10-11T16:40:12.083Z,101427.97
2022-10-11T16:42:39.701Z,101430.97
2022-10-11T16:45:07.125Z,101426.69
2022-10-11T16:47:34.231Z,101437.41
2022-10-11T16:50:01.157Z,101439.00
2022-10-11T16:52:28.236Z,101436.09
2022-10-11T16:54:55.432Z,101445.25
2022-10-11T16:57:22.506Z,101434.31
2022-10-11T16:59:49.534Z,101430.28
2022-10-11T17:02:28.753Z,101440.28
2022-10-11T17:04:59.221Z,101430.75
2022-10-11T17:07:26.692Z,101436.56
2022-10-11T17:09:53.758Z,101423.22
2022-10-11T17:12:23.232Z,101440.09
2022-10-11T17:14:50.725Z,101442.13
2022-10-11T17:17:19.174Z,101439.16
2022-10-11T17:19:47.703Z,101435.72
2022-10-11T17:22:18.641Z,101431.34
2022-10-11T17:24:46.020Z,101426.06
2022-10-11T17:27:13.619Z,101424.81
2022-10-11T17:29:40.554Z,101417.94
2022-10-11T17:32:07.891Z,101429.59
2022-10-11T17:34:35.078Z,101431.34
2022-10-11T17:37:02.002Z,101431.59
2022-10-11T17:39:29.087Z,101427.94
2022-10-11T17:41:56.040Z,101427.84
2022-10-11T17:44:23.226Z,101422.13
2022-10-11T17:46:50.379Z,101424.47
2022-10-11T17:49:17.361Z,101432.72
2022-10-11T17:51:44.595Z,101430.50
2022-10-11T17:54:13.099Z,101432.84
2022-10-11T17:56:41.414Z,101424.81
2022-10-11T17:59:14.507Z,101423.22
2022-10-11T18:01:41.580Z,101424.53
2022-10-11T18:04:13.639Z,101420.41
2022-10-11T18:06:40.706Z,101419.53
2022-10-11T18:09:07.799Z,101423.47
2022-10-11T18:11:35.047Z,101428.38
2022-10-11T18:14:01.967Z,101414.91
2022-10-11T18:16:30.823Z,101422.53
2022-10-11T18:18:58.636Z,101421.47
2022-10-11T18:21:31.184Z,101419.00
2022-10-11T18:24:02.493Z,101415.00
2022-10-11T18:26:30.638Z,101418.28
2022-10-11T18:28:58.636Z,101423.78
2022-10-11T18:31:29.541Z,101422.03
2022-10-11T18:33:57.284Z,101428.84
2022-10-11T18:36:27.565Z,101428.38
2022-10-11T18:38:56.886Z,101424.50
2022-10-11T18:41:30.723Z,101425.72
2022-10-11T18:44:00.347Z,101422.06
2022-10-11T18:46:28.348Z,101428.59
2022-10-11T18:48:56.565Z,101438.19
2022-10-11T18:51:29.130Z,101430.69
2022-10-11T18:53:58.969Z,101429.13
2022-10-11T18:56:27.414Z,101427.97
2022-10-11T18:58:56.235Z,101427.88
2022-10-11T19:01:32.177Z,101434.81
2022-10-11T19:04:01.231Z,101440.72
2022-10-11T19:06:34.026Z,101443.47
2022-10-11T19:09:00.854Z,101446.97
2022-10-11T19:11:28.132Z,101451.41
2022-10-11T19:14:00.556Z,101455.47
2022-10-11T19:16:29.856Z,101450.59
2022-10-11T19:18:57.849Z,101447.72
2022-10-11T19:21:25.399Z,101449.19
2022-10-11T19:23:52.830Z,101452.75
2022-10-11T19:26:21.388Z,101449.66
2022-10-11T19:28:48.974Z,101454.25
2022-10-11T19:31:17.081Z,101448.38
2022-10-11T19:33:45.438Z,101457.41
2022-10-11T19:36:16.697Z,101458.50
2022-10-11T19:38:46.276Z,101455.63
2022-10-11T19:41:14.206Z,101454.66
2022-10-11T19:43:41.148Z,101456.59
2022-10-11T19:46:10.427Z,101455.19
2022-10-11T19:48:39.467Z,101455.25
2022-10-11T19:51:09.327Z,101449.72
2022-10-11T19:53:36.308Z,101449.03
2022-10-11T19:56:09.314Z,101456.03
2022-10-11T19:58:37.079Z,101451.38
2022-10-11T20:01:07.050Z,101459.03
2022-10-11T20:03:34.490Z,101448.50
2022-10-11T20:06:03.534Z,101450.97
2022-10-11T20:08:31.470Z,101449.59
2022-10-11T20:10:59.797Z,101448.84
2022-10-11T20:13:31.200Z,101451.41
2022-10-11T20:16:10.173Z,101450.00
2022-10-11T20:18:38.340Z,101458.34
2022-10-11T20:21:12.293Z,101453.75
2022-10-11T20:26:15.177Z,101458.69
2022-10-11T20:28:43.075Z,101448.31
2022-10-11T20:31:18.989Z,101444.34
2022-10-11T20:33:47.170Z,101449.94
2022-10-11T20:36:16.738Z,101449.00
2022-10-11T20:38:45.627Z,101443.22
2022-10-11T20:41:15.014Z,101447.50
2022-10-11T20:43:42.903Z,101447.69
2022-10-11T20:46:12.717Z,101454.28
2022-10-11T20:48:43.337Z,101447.03
2022-10-11T20:51:11.387Z,101439.66
2022-10-11T20:53:39.051Z,101442.94
2022-10-11T20:56:10.798Z,101434.69
2022-10-11T20:58:37.759Z,101440.91
2022-10-11T21:01:16.091Z,101431.16
2022-10-11T21:03:44.081Z,101438.28
2022-10-11T21:06:11.797Z,101429.91
2022-10-11T21:08:39.602Z,101433.53
2022-10-11T21:11:07.545Z,101434.56
2022-10-11T21:13:34.978Z,101432.50
2022-10-11T21:16:12.009Z,101429.63
2022-10-11T21:18:39.493Z,101431.44
2022-10-11T21:21:11.535Z,101423.97
2022-10-11T21:23:38.938Z,101432.03
2022-10-11T21:26:08.733Z,101426.63
2022-10-11T21:28:36.416Z,101433.38
2022-10-11T21:31:08.936Z,101427.66
2022-10-11T21:33:36.594Z,101438.53
2022-10-11T21:36:08.753Z,101437.53
2022-10-11T21:38:36.334Z,101434.16
2022-10-11T21:41:08.849Z,101433.41
2022-10-11T21:43:38.404Z,101433.78
2022-10-11T21:46:18.756Z,101429.13
2022-10-11T21:48:46.095Z,101432.78
2022-10-11T21:51:24.776Z,101433.03
2022-10-11T21:53:52.620Z,101430.72
2022-10-11T21:56:20.090Z,101433.41
2022-10-11T21:58:48.376Z,101426.16
2022-10-11T22:01:16.221Z,101423.84
2022-10-11T22:03:43.855Z,101423.41
2022-10-11T22:06:11.136Z,101423.94
2022-10-11T22:08:38.417Z,101421.84
2022-10-11T22:11:05.655Z,101422.72
2022-10-11T22:13:34.052Z,101422.88
2022-10-11T22:16:06.173Z,101421.34
2022-10-11T22:18:33.855Z,101423.50
2022-10-11T22:21:09.884Z,101425.72
2022-10-11T22:23:36.845Z,101421.63
2022-10-11T22:26:12.147Z,101423.03
2022-10-11T22:28:39.619Z,101419.81
2022-10-11T22:31:07.833Z,101413.56
2022-10-11T22:33:35.217Z,101422.63
2022-10-11T22:36:04.005Z,101414.53
2022-10-11T22:38:31.236Z,101418.53
2022-10-11T22:40:58.995Z,101420.44
2022-10-11T22:43:25.936Z,101426.34
2022-10-11T22:45:52.855Z,101427.69
2022-10-11T22:48:19.896Z,101420.34
2022-10-11T22:50:47.213Z,101427.19
2022-10-11T22:53:14.838Z,101430.69
2022-10-11T22:55:42.020Z,101429.34
2022-10-11T22:58:09.502Z,101427.81
2022-10-11T23:00:37.018Z,101427.22
2022-10-11T23:03:04.377Z,101416.50
2022-10-11T23:05:31.298Z,101426.31
2022-10-11T23:07:58.136Z,101431.19
2022-10-11T23:10:25.027Z,101442.22
2022-10-11T23:12:52.035Z,101434.66
2022-10-11T23:15:19.077Z,101434.97
2022-10-11T23:17:46.109Z,101436.53
2022-10-11T23:20:13.200Z,101441.50
2022-10-11T23:22:40.093Z,101441.66
2022-10-11T23:25:07.709Z,101441.94
2022-10-11T23:27:34.772Z,101436.22
2022-10-11T23:30:01.894Z,101430.41
2022-10-11T23:32:28.835Z,101431.16
2022-10-11T23:34:55.798Z,101420.78
2022-10-11T23:37:22.670Z,101418.53
2022-10-11T23:39:49.549Z,101424.09
2022-10-11T23:42:16.417Z,101422.13
2022-10-11T23:44:43.311Z,101419.94
2022-10-11T23:47:10.279Z,101416.31
2022-10-11T23:49:37.137Z,101416.50
2022-10-11T23:52:04.135Z,101417.78
2022-10-11T23:54:31.089Z,101419.72
2022-10-11T23:56:57.940Z,101422.19
2022-10-11T23:59:24.826Z,101424.59
